sensor_id;sensor_type;location;lat;lon;timestamp;pressure;altitude;pressure_sealevel;temperature;humidity
64340;BME280;63709;53.258;-8.814;2023-07-13T00:01:36;101390.13;;;18.65;100.00
64340;BME280;63709;53.258;-8.814;2023-07-13T00:04:04;101416.69;;;18.79;100.00
64340;BME280;63709;53.258;-8.814;2023-07-13T00:06:29;101405.81;;;18.71;100.00
64340;BME280;63709;53.258;-8.814;2023-07-13T00:09:00;101403.28;;;18.59;100.00
64340;BME280;63709;53.258;-8.814;2023-07-13T00:11:26;101406.38;;;18.65;100.00
64340;BME280;63709;53.258;-8.814;2023-07-13T00:13:53;101404.31;;;18.58;100.00
64340;BME280;63709;53.258;-8.814;2023-07-13T00:16:18;101406.00;;;18.59;100.00
64340;BME280;63709;53.258;-8.814;2023-07-13T00:18:46;101402.50;;;18.49;100.00
64340;BME280;63709;53.258;-8.814;2023-07-13T00:21:12;101400.81;;;18.48;100.00
64340;BME280;63709;53.258;-8.814;2023-07-13T00:23:41;101404.66;;;18.46;100.00
64340;BME280;63709;53.258;-8.814;2023-07-13T00:26:12;101409.94;;;18.47;100.00
64340;BME280;63709;53.258;-8.814;2023-07-13T00:28:39;101395.84;;;18.44;100.00
64340;BME280;63709;53.258;-8.814;2023-07-13T00:31:05;101391.00;;;18.47;100.00
64340;BME280;63709;53.258;-8.814;2023-07-13T00:33:31;101399.94;;;18.48;100.00
64340;BME280;63709;53.258;-8.814;2023-07-13T00:35:57;101396.00;;;18.42;100.00
64340;BME280;63709;53.258;-8.814;2023-07-13T00:38:26;101392.44;;;18.42;100.00
64340;BME280;63709;53.258;-8.814;2023-07-13T00:40:52;101401.25;;;18.44;100.00
64340;BME280;63709;53.258;-8.814;2023-07-13T00:43:21;101392.44;;;18.42;100.00
64340;BME280;63709;53.258;-8.814;2023-07-13T00:48:27;101398.00;;;18.40;100.00
64340;BME280;63709;53.258;-8.814;2023-07-13T00:50:58;101386.25;;;18.31;100.00
64340;BME280;63709;53.258;-8.814;2023-07-13T00:53:27;101392.19;;;18.35;100.00
64340;BME280;63709;53.258;-8.814;2023-07-13T00:55:55;101388.81;;;18.33;100.00
64340;BME280;63709;53.258;-8.814;2023-07-13T00:58:24;101395.59;;;18.37;100.00
64340;BME280;63709;53.258;-8.814;2023-07-13T01:00:51;101398.63;;;18.34;100.00
64340;BME280;63709;53.258;-8.814;2023-07-13T01:03:17;101396.22;;;18.31;100.00
64340;BME280;63709;53.258;-8.814;2023-07-13T01:05:47;101395.78;;;18.35;100.00
64340;BME280;63709;53.258;-8.814;2023-07-13T01:08:16;101401.41;;;18.42;100.00
64340;BME280;63709;53.258;-8.814;2023-07-13T01:11:08;101399.00;;;18.39;100.00
64340;BME280;63709;53.258;-8.814;2023-07-13T01:13:35;101398.00;;;18.40;100.00
64340;BME280;63709;53.258;-8.814;2023-07-13T01:16:11;101393.47;;;18.41;100.00
64340;BME280;63709;53.258;-8.814;2023-07-13T01:18:39;101381.09;;;18.38;100.00
64340;BME280;63709;53.258;-8.814;2023-07-13T01:21:04;101372.72;;;18.31;100.00
64340;BME280;63709;53.258;-8.814;2023-07-13T01:23:31;101375.59;;;18.30;100.00
64340;BME280;63709;53.258;-8.814;2023-07-13T01:25:58;101378.00;;;18.33;100.00
64340;BME280;63709;53.258;-8.814;2023-07-13T01:28:27;101376.91;;;18.26;100.00
64340;BME280;63709;53.258;-8.814;2023-07-13T01:30:57;101387.97;;;18.32;100.00
64340;BME280;63709;53.258;-8.814;2023-07-13T01:33:24;101379.06;;;18.22;100.00
64340;BME280;63709;53.258;-8.814;2023-07-13T01:35:51;101383.00;;;18.28;100.00
64340;BME280;63709;53.258;-8.814;2023-07-13T01:38:22;101377.38;;;18.21;100.00
64340;BME280;63709;53.258;-8.814;2023-07-13T01:40:48;101378.50;;;18.19;100.00
64340;BME280;63709;53.258;-8.814;2023-07-13T01:43:14;101386.34;;;18.12;100.00
64340;BME280;63709;53.258;-8.814;2023-07-13T01:45:39;101388.03;;;17.95;100.00
64340;BME280;63709;53.258;-8.814;2023-07-13T01:48:06;101390.38;;;18.08;100.00
64340;BME280;63709;53.258;-8.814;2023-07-13T01:50:33;101383.94;;;18.09;100.00
64340;BME280;63709;53.258;-8.814;2023-07-13T01:52:59;101380.19;;;18.20;100.00
64340;BME280;63709;53.258;-8.814;2023-07-13T01:55:26;101364.75;;;18.12;100.00
64340;BME280;63709;53.258;-8.814;2023-07-13T01:57:52;101373.13;;;18.09;100.00
64340;BME280;63709;53.258;-8.814;2023-07-13T02:00:18;101374.41;;;18.14;100.00
64340;BME280;63709;53.258;-8.814;2023-07-13T02:02:43;101379.59;;;18.26;100.00
64340;BME280;63709;53.258;-8.814;2023-07-13T02:05:10;101375.22;;;18.25;100.00
64340;BME280;63709;53.258;-8.814;2023-07-13T02:07:36;101371.50;;;18.26;100.00
64340;BME280;63709;53.258;-8.814;2023-07-13T02:10:07;101374.03;;;18.27;100.00
64340;BME280;63709;53.258;-8.814;2023-07-13T02:12:35;101362.28;;;18.19;100.00
64340;BME280;63709;53.258;-8.814;2023-07-13T02:15:02;101367.22;;;18.23;100.00
64340;BME280;63709;53.258;-8.814;2023-07-13T02:17:31;101373.19;;;18.27;100.00
64340;BME280;63709;53.258;-8.814;2023-07-13T02:19:57;101374.28;;;18.34;100.00
64340;BME280;63709;53.258;-8.814;2023-07-13T02:22:27;101363.44;;;18.16;100.00
64340;BME280;63709;53.258;-8.814;2023-07-13T02:24:52;101365.03;;;18.09;100.00
64340;BME280;63709;53.258;-8.814;2023-07-13T02:27:18;101377.50;;;18.20;100.00
64340;BME280;63709;53.258;-8.814;2023-07-13T02:29:45;101375.09;;;18.17;100.00
64340;BME280;63709;53.258;-8.814;2023-07-13T02:32:11;101368.72;;;18.18;100.00
64340;BME280;63709;53.258;-8.814;2023-07-13T02:34:41;101365.50;;;18.04;100.00
64340;BME280;63709;53.258;-8.814;2023-07-13T02:37:14;101373.75;;;18.03;100.00
64340;BME280;63709;53.258;-8.814;2023-07-13T02:39:40;101369.13;;;17.95;100.00
64340;BME280;63709;53.258;-8.814;2023-07-13T02:42:06;101370.28;;;17.83;100.00
64340;BME280;63709;53.258;-8.814;2023-07-13T02:44:32;101368.00;;;17.88;100.00
64340;BME280;63709;53.258;-8.814;2023-07-13T02:46:58;101366.28;;;17.87;100.00
64340;BME280;63709;53.258;-8.814;2023-07-13T02:49:24;101369.31;;;17.84;100.00
64340;BME280;63709;53.258;-8.814;2023-07-13T02:51:50;101359.66;;;17.81;100.00
64340;BME280;63709;53.258;-8.814;2023-07-13T02:54:16;101374.16;;;17.80;100.00
64340;BME280;63709;53.258;-8.814;2023-07-13T02:56:42;101362.50;;;17.80;100.00
64340;BME280;63709;53.258;-8.814;2023-07-13T02:59:14;101371.03;;;17.75;100.00
64340;BME280;63709;53.258;-8.814;2023-07-13T03:01:41;101361.66;;;17.70;100.00
64340;BME280;63709;53.258;-8.814;2023-07-13T03:04:07;101362.34;;;17.72;100.00
64340;BME280;63709;53.258;-8.814;2023-07-13T03:06:33;101365.19;;;17.70;100.00
64340;BME280;63709;53.258;-8.814;2023-07-13T03:08:58;101365.66;;;17.65;100.00
64340;BME280;63709;53.258;-8.814;2023-07-13T03:11:25;101355.44;;;17.59;100.00
64340;BME280;63709;53.258;-8.814;2023-07-13T03:13:51;101355.84;;;17.64;100.00
64340;BME280;63709;53.258;-8.814;2023-07-13T03:16:17;101362.34;;;17.72;100.00
64340;BME280;63709;53.258;-8.814;2023-07-13T03:18:45;101353.94;;;17.84;100.00
64340;BME280;63709;53.258;-8.814;2023-07-13T03:21:13;101354.50;;;17.88;100.00
64340;BME280;63709;53.258;-8.814;2023-07-13T03:23:39;101353.88;;;17.94;100.00
64340;BME280;63709;53.258;-8.814;2023-07-13T03:28:36;101352.47;;;17.90;100.00
64340;BME280;63709;53.258;-8.814;2023-07-13T03:31:05;101353.66;;;17.87;100.00
64340;BME280;63709;53.258;-8.814;2023-07-13T03:33:32;101366.44;;;17.85;100.00
64340;BME280;63709;53.258;-8.814;2023-07-13T03:35:58;101350.25;;;17.85;100.00
64340;BME280;63709;53.258;-8.814;2023-07-13T03:38:23;101369.88;;;17.87;100.00
64340;BME280;63709;53.258;-8.814;2023-07-13T03:40:49;101374.09;;;17.90;100.00
64340;BME280;63709;53.258;-8.814;2023-07-13T03:43:16;101378.19;;;17.94;100.00
64340;BME280;63709;53.258;-8.814;2023-07-13T03:45:41;101359.28;;;17.94;100.00
64340;BME280;63709;53.258;-8.814;2023-07-13T03:48:08;101365.78;;;18.01;100.00
64340;BME280;63709;53.258;-8.814;2023-07-13T03:50:33;101367.09;;;17.97;100.00
64340;BME280;63709;53.258;-8.814;2023-07-13T03:53:02;101357.88;;;17.90;100.00
64340;BME280;63709;53.258;-8.814;2023-07-13T03:55:28;101368.09;;;17.96;100.00
64340;BME280;63709;53.258;-8.814;2023-07-13T03:58:24;101368.56;;;17.92;100.00
64340;BME280;63709;53.258;-8.814;2023-07-13T04:00:46;101364.00;;;17.92;100.00
64340;BME280;63709;53.258;-8.814;2023-07-13T04:03:12;101373.91;;;18.01;100.00
64340;BME280;63709;53.258;-8.814;2023-07-13T04:05:37;101373.75;;;18.03;100.00
64340;BME280;63709;53.258;-8.814;2023-07-13T04:08:06;101367.53;;;18.02;100.00
64340;BME280;63709;53.258;-8.814;2023-07-13T04:10:31;101350.22;;;17.95;100.00
64340;BME280;63709;53.258;-8.814;2023-07-13T04:13:00;101368.50;;;18.01;100.00
64340;BME280;63709;53.258;-8.814;2023-07-13T04:15:26;101366.63;;;18.02;100.00
64340;BME280;63709;53.258;-8.814;2023-07-13T04:17:52;101365.66;;;18.03;100.00
64340;BME280;63709;53.258;-8.814;2023-07-13T04:20:19;101361.22;;;18.02;100.00
64340;BME280;63709;53.258;-8.814;2023-07-13T04:22:48;101365.41;;;17.96;100.00
64340;BME280;63709;53.258;-8.814;2023-07-13T04:25:14;101368.78;;;17.98;100.00
64340;BME280;63709;53.258;-8.814;2023-07-13T04:27:42;101373.91;;;18.01;100.00
64340;BME280;63709;53.258;-8.814;2023-07-13T04:30:10;101354.59;;;17.96;100.00
64340;BME280;63709;53.258;-8.814;2023-07-13T04:32:36;101373.56;;;18.14;100.00
64340;BME280;63709;53.258;-8.814;2023-07-13T04:35:03;101375.50;;;18.22;100.00
64340;BME280;63709;53.258;-8.814;2023-07-13T04:37:29;101376.06;;;18.25;100.00
64340;BME280;63709;53.258;-8.814;2023-07-13T04:39:55;101368.41;;;18.21;100.00
64340;BME280;63709;53.258;-8.814;2023-07-13T04:42:21;101383.69;;;18.30;100.00
64340;BME280;63709;53.258;-8.814;2023-07-13T04:44:51;101383.31;;;18.25;100.00
64340;BME280;63709;53.258;-8.814;2023-07-13T04:47:18;101378.88;;;18.24;100.00
64340;BME280;63709;53.258;-8.814;2023-07-13T04:49:44;101375.81;;;18.19;100.00
64340;BME280;63709;53.258;-8.814;2023-07-13T04:52:13;101379.94;;;18.13;100.00
64340;BME280;63709;53.258;-8.814;2023-07-13T04:54:47;101378.41;;;18.10;100.00
64340;BME280;63709;53.258;-8.814;2023-07-13T04:57:13;101376.81;;;18.18;100.00
64340;BME280;63709;53.258;-8.814;2023-07-13T04:59:38;101392.19;;;18.17;100.00
64340;BME280;63709;53.258;-8.814;2023-07-13T05:02:04;101376.25;;;18.14;100.00
64340;BME280;63709;53.258;-8.814;2023-07-13T05:04:32;101378.13;;;18.13;100.00
64340;BME280;63709;53.258;-8.814;2023-07-13T05:06:59;101385.22;;;18.14;100.00
64340;BME280;63709;53.258;-8.814;2023-07-13T05:09:24;101371.00;;;18.12;100.00
64340;BME280;63709;53.258;-8.814;2023-07-13T05:11:49;101388.72;;;18.25;100.00
64340;BME280;63709;53.258;-8.814;2023-07-13T05:14:16;101388.72;;;18.25;100.00
64340;BME280;63709;53.258;-8.814;2023-07-13T05:16:42;101390.25;;;18.27;100.00
64340;BME280;63709;53.258;-8.814;2023-07-13T05:19:10;101389.16;;;18.20;100.00
64340;BME280;63709;53.258;-8.814;2023-07-13T05:21:36;101393.25;;;18.24;100.00
64340;BME280;63709;53.258;-8.814;2023-07-13T05:24:02;101396.50;;;18.28;100.00
64340;BME280;63709;53.258;-8.814;2023-07-13T05:26:30;101380.19;;;18.20;100.00
64340;BME280;63709;53.258;-8.814;2023-07-13T05:28:55;101401.19;;;18.35;100.00
64340;BME280;63709;53.258;-8.814;2023-07-13T05:31:21;101397.47;;;18.36;100.00
64340;BME280;63709;53.258;-8.814;2023-07-13T05:33:48;101390.75;;;18.41;100.00
64340;BME280;63709;53.258;-8.814;2023-07-13T05:36:13;101392.31;;;18.43;100.00
64340;BME280;63709;53.258;-8.814;2023-07-13T05:38:40;101392.31;;;18.43;100.00
64340;BME280;63709;53.258;-8.814;2023-07-13T05:41:05;101398.47;;;18.53;100.00
64340;BME280;63709;53.258;-8.814;2023-07-13T05:43:32;101403.59;;;18.56;100.00
64340;BME280;63709;53.258;-8.814;2023-07-13T05:45:57;101414.47;;;18.65;100.00
64340;BME280;63709;53.258;-8.814;2023-07-13T05:48:24;101415.13;;;18.58;100.00
64340;BME280;63709;53.258;-8.814;2023-07-13T05:50:51;101414.41;;;18.56;100.00
64340;BME280;63709;53.258;-8.814;2023-07-13T05:53:18;101418.50;;;18.60;100.00
64340;BME280;63709;53.258;-8.814;2023-07-13T05:55:47;101410.69;;;18.57;100.00
64340;BME280;63709;53.258;-8.814;2023-07-13T05:58:20;101427.31;;;18.62;100.00
64340;BME280;63709;53.258;-8.814;2023-07-13T06:00:47;101421.66;;;18.56;100.00
64340;BME280;63709;53.258;-8.814;2023-07-13T06:03:14;101426.47;;;18.62;100.00
64340;BME280;63709;53.258;-8.814;2023-07-13T06:05:41;101424.16;;;18.67;100.00
64340;BME280;63709;53.258;-8.814;2023-07-13T06:08:07;101432.84;;;18.71;100.00
64340;BME280;63709;53.258;-8.814;2023-07-13T06:10:35;101422.59;;;18.65;100.00
64340;BME280;63709;53.258;-8.814;2023-07-13T06:13:04;101429.00;;;18.73;100.00
64340;BME280;63709;53.258;-8.814;2023-07-13T06:15:31;101420.91;;;18.63;100.00
64340;BME280;63709;53.258;-8.814;2023-07-13T06:17:57;101417.72;;;18.68;100.00
64340;BME280;63709;53.258;-8.814;2023-07-13T06:20:22;101421.28;;;18.69;100.00
64340;BME280;63709;53.258;-8.814;2023-07-13T06:22:48;101425.81;;;18.78;100.00
64340;BME280;63709;53.258;-8.814;2023-07-13T06:25:15;101416.63;;;18.71;100.00
64340;BME280;63709;53.258;-8.814;2023-07-13T06:27:41;101431.84;;;18.90;100.00
64340;BME280;63709;53.258;-8.814;2023-07-13T06:30:07;101422.81;;;18.81;100.00
64340;BME280;63709;53.258;-8.814;2023-07-13T06:32:33;101430.47;;;18.85;100.00
64340;BME280;63709;53.258;-8.814;2023-07-13T06:34:58;101437.44;;;18.88;100.00
64340;BME280;63709;53.258;-8.814;2023-07-13T06:37:23;101428.28;;;18.89;100.00
64340;BME280;63709;53.258;-8.814;2023-07-13T06:39:50;101432.16;;;19.04;100.00
64340;BME280;63709;53.258;-8.814;2023-07-13T06:42:17;101433.25;;;18.94;100.00
64340;BME280;63709;53.258;-8.814;2023-07-13T06:44:45;101430.75;;;19.00;100.00
64340;BME280;63709;53.258;-8.814;2023-07-13T06:47:10;101431.47;;;19.02;100.00
64340;BME280;63709;53.258;-8.814;2023-07-13T06:49:38;101418.50;;;18.88;100.00
64340;BME280;63709;53.258;-8.814;2023-07-13T06:52:05;101433.00;;;19.05;100.00
64340;BME280;63709;53.258;-8.814;2023-07-13T06:54:36;101418.63;;;19.04;100.00
64340;BME280;63709;53.258;-8.814;2023-07-13T06:57:02;101437.72;;;19.21;100.00
64340;BME280;63709;53.258;-8.814;2023-07-13T06:59:29;101429.97;;;19.26;100.00
64340;BME280;63709;53.258;-8.814;2023-07-13T07:01:55;101424.88;;;19.23;100.00
64340;BME280;63709;53.258;-8.814;2023-07-13T07:04:23;101399.28;;;19.17;100.00
64340;BME280;63709;53.258;-8.814;2023-07-13T07:06:49;101433.50;;;19.44;100.00
64340;BME280;63709;53.258;-8.814;2023-07-13T07:09:14;101432.84;;;19.50;100.00
64340;BME280;63709;53.258;-8.814;2023-07-13T07:11:41;101416.59;;;19.50;100.00
64340;BME280;63709;53.258;-8.814;2023-07-13T07:14:07;101419.41;;;19.58;100.00
64340;BME280;63709;53.258;-8.814;2023-07-13T07:16:35;101423.19;;;19.66;100.00
64340;BME280;63709;53.258;-8.814;2023-07-13T07:19:03;101415.91;;;19.66;100.00
64340;BME280;63709;53.258;-8.814;2023-07-13T07:21:29;101421.56;;;19.73;100.00
64340;BME280;63709;53.258;-8.814;2023-07-13T07:23:54;101422.41;;;19.73;100.00
64340;BME280;63709;53.258;-8.814;2023-07-13T07:26:20;101423.78;;;19.77;100.00
64340;BME280;63709;53.258;-8.814;2023-07-13T07:28:45;101434.66;;;19.86;100.00
64340;BME280;63709;53.258;-8.814;2023-07-13T07:31:12;101416.13;;;19.73;100.00
64340;BME280;63709;53.258;-8.814;2023-07-13T07:33:38;101436.88;;;19.90;100.00
64340;BME280;63709;53.258;-8.814;2023-07-13T07:36:04;101426.56;;;19.94;100.00
64340;BME280;63709;53.258;-8.814;2023-07-13T07:38:30;101418.06;;;19.89;100.00
64340;BME280;63709;53.258;-8.814;2023-07-13T07:40:56;101438.31;;;20.02;100.00
64340;BME280;63709;53.258;-8.814;2023-07-13T07:43:22;101423.72;;;19.95;100.00
64340;BME280;63709;53.258;-8.814;2023-07-13T07:45:53;101427.78;;;19.99;100.00
64340;BME280;63709;53.258;-8.814;2023-07-13T07:48:18;101392.84;;;19.88;100.00
64340;BME280;63709;53.258;-8.814;2023-07-13T07:50:44;101423.41;;;20.06;100.00
64340;BME280;63709;53.258;-8.814;2023-07-13T07:53:10;101424.50;;;20.22;100.00
64340;BME280;63709;53.258;-8.814;2023-07-13T07:55:37;101437.03;;;20.23;100.00
64340;BME280;63709;53.258;-8.814;2023-07-13T07:58:03;101431.31;;;20.34;100.00
64340;BME280;63709;53.258;-8.814;2023-07-13T08:00:28;101422.78;;;20.21;100.00
64340;BME280;63709;53.258;-8.814;2023-07-13T08:02:58;101423.16;;;20.26;100.00
64340;BME280;63709;53.258;-8.814;2023-07-13T08:05:26;101429.66;;;20.41;100.00
64340;BME280;63709;53.258;-8.814;2023-07-13T08:07:52;101431.53;;;20.49;100.00
64340;BME280;63709;53.258;-8.814;2023-07-13T08:10:17;101430.06;;;20.54;100.00
64340;BME280;63709;53.258;-8.814;2023-07-13T08:12:43;101429.59;;;20.67;100.00
64340;BME280;63709;53.258;-8.814;2023-07-13T08:15:13;101429.06;;;20.72;100.00
64340;BME280;63709;53.258;-8.814;2023-07-13T08:17:40;101419.25;;;20.71;100.00
64340;BME280;63709;53.258;-8.814;2023-07-13T08:20:06;101433.84;;;20.78;100.00
64340;BME280;63709;53.258;-8.814;2023-07-13T08:22:33;101430.59;;;20.66;100.00
64340;BME280;63709;53.258;-8.814;2023-07-13T08:24:59;101432.81;;;20.71;100.00
64340;BME280;63709;53.258;-8.814;2023-07-13T08:27:27;101443.47;;;20.64;100.00
64340;BME280;63709;53.258;-8.814;2023-07-13T08:29:53;101426.34;;;20.56;100.00
64340;BME280;63709;53.258;-8.814;2023-07-13T08:32:20;101433.41;;;20.48;100.00
64340;BME280;63709;53.258;-8.814;2023-07-13T08:34:49;101428.09;;;20.39;100.00
64340;BME280;63709;53.258;-8.814;2023-07-13T08:37:17;101426.41;;;20.38;100.00
64340;BME280;63709;53.258;-8.814;2023-07-13T08:39:46;101435.72;;;20.35;100.00
64340;BME280;63709;53.258;-8.814;2023-07-13T08:47:23;101425.41;;;20.39;100.00
64340;BME280;63709;53.258;-8.814;2023-07-13T08:49:50;101426.63;;;20.44;100.00
64340;BME280;63709;53.258;-8.814;2023-07-13T08:55:14;101419.69;;;20.50;100.00
64340;BME280;63709;53.258;-8.814;2023-07-13T08:57:43;101430.75;;;20.57;100.00
64340;BME280;63709;53.258;-8.814;2023-07-13T09:00:11;101428.41;;;20.62;100.00
64340;BME280;63709;53.258;-8.814;2023-07-13T09:02:56;101426.38;;;20.72;100.00
64340;BME280;63709;53.258;-8.814;2023-07-13T09:10:28;101416.34;;;20.72;100.00
64340;BME280;63709;53.258;-8.814;2023-07-13T09:16:00;101431.44;;;20.67;100.00
64340;BME280;63709;53.258;-8.814;2023-07-13T09:18:30;101423.81;;;20.62;100.00
64340;BME280;63709;53.258;-8.814;2023-07-13T09:21:03;101422.72;;;20.47;100.00
64340;BME280;63709;53.258;-8.814;2023-07-13T09:23:31;101434.81;;;20.52;100.00
64340;BME280;63709;53.258;-8.814;2023-07-13T09:26:04;101424.28;;;20.49;100.00
64340;BME280;63709;53.258;-8.814;2023-07-13T09:28:40;101439.06;;;20.55;100.00
64340;BME280;63709;53.258;-8.814;2023-07-13T09:31:20;101436.16;;;20.57;100.00
64340;BME280;63709;53.258;-8.814;2023-07-13T09:33:49;101431.06;;;20.53;100.00
64340;BME280;63709;53.258;-8.814;2023-07-13T09:36:26;101425.97;;;20.50;100.00
64340;BME280;63709;53.258;-8.814;2023-07-13T09:39:04;101439.25;;;20.70;100.00
64340;BME280;63709;53.258;-8.814;2023-07-13T09:42:03;101437.22;;;20.72;100.00
64340;BME280;63709;53.258;-8.814;2023-07-13T09:44:37;101438.91;;;20.65;100.00
64340;BME280;63709;53.258;-8.814;2023-07-13T09:47:16;101437.72;;;20.75;100.00
64340;BME280;63709;53.258;-8.814;2023-07-13T09:49:42;101428.09;;;20.73;100.00
64340;BME280;63709;53.258;-8.814;2023-07-13T09:52:12;101428.94;;;20.82;100.00
64340;BME280;63709;53.258;-8.814;2023-07-13T09:54:39;101432.34;;;20.92;100.00
64340;BME280;63709;53.258;-8.814;2023-07-13T09:57:26;101432.69;;;20.97;100.00
64340;BME280;63709;53.258;-8.814;2023-07-13T09:59:55;101435.41;;;21.05;100.00
64340;BME280;63709;53.258;-8.814;2023-07-13T10:05:18;101429.47;;;21.10;100.00
64340;BME280;63709;53.258;-8.814;2023-07-13T10:07:45;101445.75;;;21.10;100.00
64340;BME280;63709;53.258;-8.814;2023-07-13T10:10:20;101435.75;;;21.10;100.00
64340;BME280;63709;53.258;-8.814;2023-07-13T10:12:49;101449.16;;;20.95;100.00
64340;BME280;63709;53.258;-8.814;2023-07-13T10:15:21;101446.75;;;20.84;100.00
64340;BME280;63709;53.258;-8.814;2023-07-13T10:17:49;101448.44;;;20.77;100.00
64340;BME280;63709;53.258;-8.814;2023-07-13T10:20:16;101456.06;;;20.82;100.00
64340;BME280;63709;53.258;-8.814;2023-07-13T10:22:44;101446.06;;;20.82;100.00
64340;BME280;63709;53.258;-8.814;2023-07-13T10:25:24;101444.38;;;20.81;100.00
64340;BME280;63709;53.258;-8.814;2023-07-13T10:27:54;101444.03;;;20.84;100.00
64340;BME280;63709;53.258;-8.814;2023-07-13T10:30:49;101443.03;;;21.01;100.00
64340;BME280;63709;53.258;-8.814;2023-07-13T10:33:21;101449.16;;;21.03;100.00
64340;BME280;63709;53.258;-8.814;2023-07-13T10:35:51;101452.06;;;21.10;100.00
64340;BME280;63709;53.258;-8.814;2023-07-13T10:38:22;101451.88;;;21.12;100.00
64340;BME280;63709;53.258;-8.814;2023-07-13T10:41:04;101446.94;;;21.23;100.00
64340;BME280;63709;53.258;-8.814;2023-07-13T10:43:35;101445.78;;;21.26;100.00
64340;BME280;63709;53.258;-8.814;2023-07-13T10:46:08;101441.00;;;21.28;100.00
64340;BME280;63709;53.258;-8.814;2023-07-13T10:48:40;101435.63;;;21.44;100.00
64340;BME280;63709;53.258;-8.814;2023-07-13T10:51:09;101429.47;;;21.50;100.00
64340;BME280;63709;53.258;-8.814;2023-07-13T10:53:38;101432.19;;;21.59;100.00
64340;BME280;63709;53.258;-8.814;2023-07-13T10:56:30;101430.16;;;21.61;100.00
64340;BME280;63709;53.258;-8.814;2023-07-13T11:04:29;101430.00;;;21.62;100.00
64340;BME280;63709;53.258;-8.814;2023-07-13T11:07:00;101413.34;;;21.57;100.00
64340;BME280;63709;53.258;-8.814;2023-07-13T11:09:40;101415.06;;;21.58;100.00
64340;BME280;63709;53.258;-8.814;2023-07-13T11:17:46;101417.94;;;21.57;100.00
64340;BME280;63709;53.258;-8.814;2023-07-13T11:22:46;101421.00;;;21.45;100.00
64340;BME280;63709;53.258;-8.814;2023-07-13T11:30:39;101422.19;;;21.35;100.00
64340;BME280;63709;53.258;-8.814;2023-07-13T11:35:53;101415.91;;;21.26;100.00
64340;BME280;63709;53.258;-8.814;2023-07-13T11:38:37;101420.13;;;21.12;100.00
64340;BME280;63709;53.258;-8.814;2023-07-13T11:41:25;101424.34;;;20.90;100.00
64340;BME280;63709;53.258;-8.814;2023-07-13T11:44:04;101428.75;;;20.83;100.00
64340;BME280;63709;53.258;-8.814;2023-07-13T11:46:30;101421.97;;;20.79;100.00
64340;BME280;63709;53.258;-8.814;2023-07-13T11:48:58;101423.19;;;20.76;100.00
64340;BME280;63709;53.258;-8.814;2023-07-13T11:51:28;101415.69;;;20.70;100.00
64340;BME280;63709;53.258;-8.814;2023-07-13T11:54:02;101416.88;;;20.76;100.00
64340;BME280;63709;53.258;-8.814;2023-07-13T11:56:29;101409.41;;;20.70;100.00
64340;BME280;63709;53.258;-8.814;2023-07-13T11:58:56;101410.09;;;20.80;100.00
64340;BME280;63709;53.258;-8.814;2023-07-13T12:01:31;101400.97;;;20.81;100.00
64340;BME280;63709;53.258;-8.814;2023-07-13T12:04:04;101399.59;;;20.93;100.00
64340;BME280;63709;53.258;-8.814;2023-07-13T12:06:36;101395.53;;;21.06;100.00
64340;BME280;63709;53.258;-8.814;2023-07-13T12:09:14;101395.34;;;21.23;100.00
64340;BME280;63709;53.258;-8.814;2023-07-13T12:11:45;101392.63;;;21.23;100.00
64340;BME280;63709;53.258;-8.814;2023-07-13T12:14:17;101394.19;;;21.34;100.00
64340;BME280;63709;53.258;-8.814;2023-07-13T12:16:45;101396.19;;;21.24;100.00
64340;BME280;63709;53.258;-8.814;2023-07-13T12:19:21;101382.81;;;21.22;100.00
64340;BME280;63709;53.258;-8.814;2023-07-13T12:21:52;101389.06;;;21.31;100.00
64340;BME280;63709;53.258;-8.814;2023-07-13T12:24:20;101394.66;;;21.13;100.00
64340;BME280;63709;53.258;-8.814;2023-07-13T12:27:06;101389.25;;;21.13;100.00
64340;BME280;63709;53.258;-8.814;2023-07-13T12:29:33;101386.03;;;21.01;100.00
64340;BME280;63709;53.258;-8.814;2023-07-13T12:31:59;101377.38;;;20.98;100.00
64340;BME280;63709;53.258;-8.814;2023-07-13T12:34:25;101390.94;;;21.06;100.00
64340;BME280;63709;53.258;-8.814;2023-07-13T12:36:55;101391.63;;;20.92;100.00
64340;BME280;63709;53.258;-8.814;2023-07-13T12:39:22;101395.00;;;20.86;100.00
64340;BME280;63709;53.258;-8.814;2023-07-13T12:41:53;101392.81;;;20.89;100.00
64340;BME280;63709;53.258;-8.814;2023-07-13T12:44:27;101385.69;;;20.88;100.00
64340;BME280;63709;53.258;-8.814;2023-07-13T12:47:14;101389.41;;;20.87;100.00
64340;BME280;63709;53.258;-8.814;2023-07-13T12:49:44;101385.00;;;20.86;100.00
64340;BME280;63709;53.258;-8.814;2023-07-13T12:52:20;101382.94;;;20.80;100.00
64340;BME280;63709;53.258;-8.814;2023-07-13T12:54:54;101372.28;;;20.70;100.00
64340;BME280;63709;53.258;-8.814;2023-07-13T12:57:23;101373.81;;;20.81;100.00
64340;BME280;63709;53.258;-8.814;2023-07-13T12:59:53;101372.97;;;20.97;100.00
64340;BME280;63709;53.258;-8.814;2023-07-13T13:02:33;101371.44;;;21.11;100.00
64340;BME280;63709;53.258;-8.814;2023-07-13T13:05:01;101368.72;;;21.35;100.00
64340;BME280;63709;53.258;-8.814;2023-07-13T13:07:28;101364.28;;;21.50;100.00
64340;BME280;63709;53.258;-8.814;2023-07-13T13:09:57;101364.28;;;21.59;100.00
64340;BME280;63709;53.258;-8.814;2023-07-13T13:12:23;101362.81;;;21.87;100.00
64340;BME280;63709;53.258;-8.814;2023-07-13T13:14:51;101353.59;;;21.96;100.00
64340;BME280;63709;53.258;-8.814;2023-07-13T13:17:21;101357.63;;;22.09;100.00
64340;BME280;63709;53.258;-8.814;2023-07-13T13:19:50;101348.28;;;22.11;100.00
64340;BME280;63709;53.258;-8.814;2023-07-13T13:22:21;101343.19;;;22.08;100.00
64340;BME280;63709;53.258;-8.814;2023-07-13T13:24:47;101344.22;;;22.07;100.00